Time;durP1;ratioP1;P1;durP2;ratioP2;P2;SDS_P1;SDS_P2;PMS_P1;PMS_P2;Temp;Humidity;BMP_temperature;BMP_pressure;BME280_temperature;BME280_humidity;BME280_pressure;Samples;Min_cycle;Max_cycle;Signal;HPM_P1;HPM_P2
2023/01/21 00:01:47;;;;;;;;;;;17.60;46.80;;;;;;4997430;28;19988;-54
2023/01/21 00:04:13;;;;;;;;;;;17.50;46.80;;;;;;5004349;28;19944;-53
2023/01/21 00:06:38;;;;;;;;;;;17.50;46.70;;;;;;4995544;28;21507;-53
2023/01/21 00:09:04;;;;;;;;;;;17.50;46.90;;;;;;4997554;28;20016;-53
2023/01/21 00:11:29;;;;;;;;;;;17.40;46.90;;;;;;5000467;28;19918;-53
2023/01/21 00:13:55;;;;;;;;;;;17.40;46.90;;;;;;5014950;28;19916;-53
2023/01/21 00:16:20;;;;;;;;;;;17.40;47.10;;;;;;5025469;28;19913;-53
2023/01/21 00:18:46;;;;;;;;;;;17.40;47.10;;;;;;5012878;28;19913;-52
2023/01/21 00:21:12;;;;;;;;;;;17.40;47.00;;;;;;5013432;28;19964;-53
2023/01/21 00:23:37;;;;;;;;;;;17.30;47.00;;;;;;5007174;28;19922;-53
2023/01/21 00:26:04;;;;;;;;;;;17.30;47.00;;;;;;5011756;28;19917;-53
2023/01/21 00:28:29;;;;;;;;;;;17.20;47.20;;;;;;5007890;28;19925;-53
2023/01/21 00:30:56;;;;;;;;;;;17.30;47.20;;;;;;5001409;28;19919;-53
2023/01/21 00:33:21;;;;;;;;;;;17.30;47.10;;;;;;4998557;28;19963;-53
2023/01/21 00:35:55;;;;;;;;;;;17.30;47.20;;;;;;5002205;28;19952;-52
2023/01/21 00:38:20;;;;;;;;;;;17.20;47.10;;;;;;5000356;28;19928;-53
2023/01/21 00:40:45;;;;;;;;;;;17.20;47.10;;;;;;5004066;28;19913;-52
2023/01/21 00:43:11;;;;;;;;;;;17.20;47.00;;;;;;5003933;28;20013;-52
2023/01/21 00:45:36;;;;;;;;;;;17.20;47.10;;;;;;4996198;28;19922;-53
2023/01/21 00:48:02;;;;;;;;;;;17.20;47.30;;;;;;4997846;28;20045;-52
2023/01/21 00:50:27;;;;;;;;;;;17.20;47.20;;;;;;4996583;28;19997;-52
2023/01/21 00:52:53;;;;;;;;;;;17.10;47.30;;;;;;5005922;28;19922;-52
2023/01/21 00:55:18;;;;;;;;;;;17.10;47.20;;;;;;4999709;28;20441;-52
2023/01/21 00:57:44;;;;;;;;;;;17.10;47.80;;;;;;4996720;28;19924;-51
2023/01/21 01:00:11;;;;;;;;;;;17.10;47.60;;;;;;5028448;28;19918;-52
2023/01/21 01:02:37;;;;;;;;;;;17.10;47.50;;;;;;4997105;28;19913;-53
2023/01/21 01:05:04;;;;;;;;;;;17.00;47.30;;;;;;4996934;28;20389;-53
2023/01/21 01:07:30;;;;;;;;;;;17.00;47.30;;;;;;4995199;28;19918;-52
2023/01/21 01:09:55;;;;;;;;;;;17.00;47.30;;;;;;4997602;28;19917;-52
2023/01/21 01:12:21;;;;;;;;;;;17.00;47.40;;;;;;4995633;28;19917;-53
2023/01/21 01:14:46;;;;;;;;;;;17.00;47.30;;;;;;4997390;28;20008;-52
2023/01/21 01:17:11;;;;;;;;;;;17.00;48.10;;;;;;5006677;28;19922;-52
2023/01/21 01:19:37;;;;;;;;;;;16.90;47.40;;;;;;5009096;28;20263;-52
2023/01/21 01:22:02;;;;;;;;;;;16.90;47.30;;;;;;5009859;28;19913;-52
2023/01/21 01:24:28;;;;;;;;;;;16.90;47.30;;;;;;5008187;28;19921;-53
2023/01/21 01:26:53;;;;;;;;;;;16.90;47.50;;;;;;4999675;28;20004;-53
2023/01/21 01:29:19;;;;;;;;;;;16.90;47.60;;;;;;4994432;28;19918;-52
2023/01/21 01:31:44;;;;;;;;;;;16.80;47.40;;;;;;4994009;28;19918;-53
2023/01/21 01:34:10;;;;;;;;;;;16.80;47.60;;;;;;4997711;28;19914;-52
2023/01/21 01:36:35;;;;;;;;;;;16.80;47.50;;;;;;5005282;28;20369;-52
2023/01/21 01:39:00;;;;;;;;;;;16.80;47.40;;;;;;5007521;28;19914;-53
2023/01/21 01:41:28;;;;;;;;;;;16.80;47.40;;;;;;4994709;28;19960;-53
2023/01/21 01:43:54;;;;;;;;;;;16.80;47.50;;;;;;4997826;28;20317;-53
2023/01/21 01:46:20;;;;;;;;;;;16.80;47.40;;;;;;4996666;28;20361;-52
2023/01/21 01:48:47;;;;;;;;;;;16.80;47.60;;;;;;4994590;28;19920;-54
2023/01/21 01:51:13;;;;;;;;;;;16.70;47.50;;;;;;5027257;28;19914;-52
2023/01/21 01:53:39;;;;;;;;;;;16.70;47.20;;;;;;5002839;28;19964;-53
2023/01/21 01:56:04;;;;;;;;;;;16.70;47.50;;;;;;5002980;28;20285;-54
2023/01/21 01:58:30;;;;;;;;;;;16.70;47.50;;;;;;4999072;28;19918;-53
2023/01/21 02:00:55;;;;;;;;;;;16.70;47.50;;;;;;4994855;28;19914;-53
2023/01/21 02:06:05;;;;;;;;;;;16.70;47.70;;;;;;5019302;28;19928;-53
2023/01/21 02:08:32;;;;;;;;;;;16.70;47.50;;;;;;4996484;28;19922;-53
2023/01/21 02:10:57;;;;;;;;;;;16.60;47.50;;;;;;5025212;28;19921;-53
2023/01/21 02:13:23;;;;;;;;;;;16.60;47.40;;;;;;4993685;28;19925;-53
2023/01/21 02:15:52;;;;;;;;;;;16.70;47.50;;;;;;4995032;28;19944;-53
2023/01/21 02:18:28;;;;;;;;;;;16.70;47.00;;;;;;4992616;28;19917;-53
2023/01/21 02:21:20;;;;;;;;;;;16.80;46.90;;;;;;4994419;28;19956;-53
2023/01/21 02:24:05;;;;;;;;;;;17.00;46.50;;;;;;4996301;28;19922;-53
2023/01/21 02:26:34;;;;;;;;;;;17.10;46.60;;;;;;4994654;28;19917;-53
2023/01/21 02:29:13;;;;;;;;;;;17.40;46.30;;;;;;4996374;28;20012;-53
2023/01/21 02:31:57;;;;;;;;;;;17.70;45.80;;;;;;4994245;28;19922;-53
2023/01/21 02:34:34;;;;;;;;;;;18.10;44.80;;;;;;4994046;28;19918;-53
2023/01/21 02:37:16;;;;;;;;;;;18.40;44.20;;;;;;4993527;28;19913;-53
2023/01/21 02:39:52;;;;;;;;;;;18.50;44.10;;;;;;4996415;28;19960;-54
2023/01/21 02:42:27;;;;;;;;;;;18.40;44.10;;;;;;4993300;28;19936;-53
2023/01/21 02:44:55;;;;;;;;;;;18.50;44.10;;;;;;4995859;28;19925;-53
2023/01/21 02:47:26;;;;;;;;;;;18.70;43.90;;;;;;4997640;28;19914;-53
2023/01/21 02:49:52;;;;;;;;;;;18.90;43.40;;;;;;4994429;28;19913;-53
2023/01/21 02:52:18;;;;;;;;;;;19.20;43.10;;;;;;5000181;28;19922;-53
2023/01/21 02:54:46;;;;;;;;;;;19.50;42.30;;;;;;5002700;28;19956;-54
2023/01/21 02:57:13;;;;;;;;;;;19.70;42.00;;;;;;4991122;28;20362;-53
2023/01/21 02:59:38;;;;;;;;;;;19.90;41.50;;;;;;5025002;28;20347;-53
2023/01/21 03:02:23;;;;;;;;;;;20.00;41.40;;;;;;5025180;28;20013;-53
2023/01/21 03:04:54;;;;;;;;;;;20.00;41.10;;;;;;4997326;28;19917;-54
2023/01/21 03:07:28;;;;;;;;;;;20.20;40.90;;;;;;4994490;28;19944;-53
2023/01/21 03:09:55;;;;;;;;;;;20.30;40.70;;;;;;4995893;28;20673;-54
2023/01/21 03:12:38;;;;;;;;;;;20.20;40.90;;;;;;4997861;28;19914;-53
2023/01/21 03:17:52;;;;;;;;;;;20.30;40.90;;;;;;5038730;28;19920;-53
2023/01/21 03:20:25;;;;;;;;;;;20.20;40.80;;;;;;5013686;28;19928;-53
2023/01/21 03:22:51;;;;;;;;;;;20.20;41.00;;;;;;5012688;28;19975;-53
2023/01/21 03:25:17;;;;;;;;;;;20.10;40.90;;;;;;5007910;28;19944;-53
2023/01/21 03:27:43;;;;;;;;;;;20.00;40.90;;;;;;5027513;28;20381;-53
2023/01/21 03:30:13;;;;;;;;;;;20.00;41.10;;;;;;5011881;28;19913;-53
2023/01/21 03:32:39;;;;;;;;;;;20.00;41.10;;;;;;5013664;28;20285;-53
2023/01/21 03:35:04;;;;;;;;;;;20.00;41.10;;;;;;5046519;28;19913;-53
2023/01/21 03:37:31;;;;;;;;;;;20.00;41.10;;;;;;5000415;28;19960;-54
2023/01/21 03:40:17;;;;;;;;;;;20.00;41.40;;;;;;5007217;28;20271;-52
2023/01/21 03:42:42;;;;;;;;;;;20.00;41.10;;;;;;5035007;28;19936;-53
2023/01/21 03:45:08;;;;;;;;;;;20.00;41.20;;;;;;4995846;28;20309;-53
2023/01/21 03:47:34;;;;;;;;;;;20.00;41.20;;;;;;4997702;28;20388;-53
2023/01/21 03:50:09;;;;;;;;;;;19.90;41.20;;;;;;4997339;28;19992;-52
2023/01/21 03:52:37;;;;;;;;;;;19.90;41.50;;;;;;5030515;28;19914;-53
2023/01/21 03:55:03;;;;;;;;;;;19.80;41.50;;;;;;5030913;28;19919;-53
2023/01/21 03:57:28;;;;;;;;;;;19.80;41.30;;;;;;5028341;28;19914;-53
2023/01/21 03:59:55;;;;;;;;;;;19.70;41.50;;;;;;4998932;28;19953;-54
2023/01/21 04:02:20;;;;;;;;;;;19.70;41.60;;;;;;5001615;28;19921;-52
2023/01/21 04:04:46;;;;;;;;;;;19.50;41.80;;;;;;5008476;28;19956;-53
2023/01/21 04:07:12;;;;;;;;;;;19.50;41.90;;;;;;5016015;28;19913;-52
2023/01/21 04:09:37;;;;;;;;;;;19.60;41.90;;;;;;5004916;28;19917;-52
2023/01/21 04:12:03;;;;;;;;;;;19.50;41.90;;;;;;5001002;28;19921;-52
2023/01/21 04:14:28;;;;;;;;;;;19.50;41.90;;;;;;5013562;28;19920;-52
2023/01/21 04:16:54;;;;;;;;;;;19.40;42.10;;;;;;5006496;28;19920;-52
2023/01/21 04:19:20;;;;;;;;;;;19.50;42.10;;;;;;4999668;28;19921;-52
2023/01/21 04:21:45;;;;;;;;;;;19.50;42.10;;;;;;4999717;28;21662;-52
2023/01/21 04:24:11;;;;;;;;;;;19.50;42.10;;;;;;5007250;28;19922;-54
2023/01/21 04:26:36;;;;;;;;;;;19.50;42.50;;;;;;4997150;28;19918;-53
2023/01/21 04:29:02;;;;;;;;;;;19.50;41.80;;;;;;4995153;28;20406;-54
2023/01/21 04:31:27;;;;;;;;;;;19.50;41.70;;;;;;4996363;28;20621;-52
2023/01/21 04:33:52;;;;;;;;;;;19.60;41.60;;;;;;4997432;28;19922;-52
2023/01/21 04:36:18;;;;;;;;;;;19.70;41.50;;;;;;4996938;28;19960;-52
2023/01/21 04:38:43;;;;;;;;;;;19.80;41.50;;;;;;5002937;28;20009;-53
2023/01/21 04:41:09;;;;;;;;;;;19.80;41.30;;;;;;4994001;28;19918;-53
2023/01/21 04:43:34;;;;;;;;;;;19.90;41.20;;;;;;5002990;28;19918;-54
2023/01/21 04:46:00;;;;;;;;;;;19.80;41.30;;;;;;4996633;28;19932;-52
2023/01/21 04:48:25;;;;;;;;;;;19.80;41.50;;;;;;4996343;28;19914;-52
2023/01/21 04:50:50;;;;;;;;;;;19.80;41.40;;;;;;4997919;28;19914;-53
2023/01/21 04:53:16;;;;;;;;;;;19.70;41.40;;;;;;4998802;28;19964;-53
2023/01/21 04:55:41;;;;;;;;;;;19.70;41.30;;;;;;4995409;28;20003;-53
2023/01/21 04:58:07;;;;;;;;;;;19.70;41.40;;;;;;4995549;28;20020;-53
2023/01/21 05:00:32;;;;;;;;;;;19.60;41.60;;;;;;4998712;28;19921;-53
2023/01/21 05:02:58;;;;;;;;;;;19.70;41.70;;;;;;4997509;28;19928;-52
2023/01/21 05:05:23;;;;;;;;;;;19.60;41.70;;;;;;4999584;28;19917;-53
2023/01/21 05:07:51;;;;;;;;;;;19.60;41.70;;;;;;5006316;28;19921;-53
2023/01/21 05:10:16;;;;;;;;;;;19.50;41.80;;;;;;5001316;28;20271;-53
2023/01/21 05:12:42;;;;;;;;;;;19.50;41.80;;;;;;5005580;28;19920;-52
2023/01/21 05:15:08;;;;;;;;;;;19.50;41.80;;;;;;5001181;28;19924;-53
2023/01/21 05:17:33;;;;;;;;;;;19.60;41.80;;;;;;5011536;28;19917;-53
2023/01/21 05:19:58;;;;;;;;;;;19.50;41.60;;;;;;5012005;28;19968;-52
2023/01/21 05:22:24;;;;;;;;;;;19.50;41.60;;;;;;5011124;28;20269;-53
2023/01/21 05:24:49;;;;;;;;;;;19.50;41.60;;;;;;5004776;28;19964;-53
2023/01/21 05:27:15;;;;;;;;;;;19.50;41.50;;;;;;5000557;28;19921;-53
2023/01/21 05:29:40;;;;;;;;;;;19.60;41.60;;;;;;4994025;28;20012;-54
2023/01/21 05:32:06;;;;;;;;;;;19.60;41.40;;;;;;5003633;28;19956;-54
2023/01/21 05:34:31;;;;;;;;;;;19.70;41.40;;;;;;5001425;28;19914;-54
2023/01/21 05:36:57;;;;;;;;;;;19.70;42.00;;;;;;4998031;28;20032;-54
2023/01/21 05:39:22;;;;;;;;;;;19.70;41.10;;;;;;4999940;28;19952;-54
2023/01/21 05:41:47;;;;;;;;;;;19.70;41.00;;;;;;5007865;28;19917;-54
2023/01/21 05:44:13;;;;;;;;;;;19.80;41.10;;;;;;4996484;28;19917;-52
2023/01/21 05:46:38;;;;;;;;;;;19.80;41.10;;;;;;4998069;28;19961;-52
2023/01/21 05:49:05;;;;;;;;;;;19.80;41.80;;;;;;5006411;28;19914;-52
2023/01/21 05:51:30;;;;;;;;;;;19.80;41.20;;;;;;4992831;28;20606;-52
2023/01/21 05:53:56;;;;;;;;;;;19.70;41.10;;;;;;4995963;28;20004;-53
2023/01/21 05:56:21;;;;;;;;;;;19.70;41.10;;;;;;4995110;28;20294;-54
2023/01/21 05:58:47;;;;;;;;;;;19.70;41.20;;;;;;4996644;28;19921;-52
2023/01/21 06:01:12;;;;;;;;;;;19.60;41.30;;;;;;4995141;28;19925;-54
2023/01/21 06:03:37;;;;;;;;;;;19.50;41.20;;;;;;5003591;28;20040;-54
2023/01/21 06:06:03;;;;;;;;;;;19.50;41.60;;;;;;5005235;28;19925;-54
2023/01/21 06:08:28;;;;;;;;;;;19.40;41.60;;;;;;4996883;28;19997;-52
2023/01/21 06:10:57;;;;;;;;;;;19.40;41.70;;;;;;5002208;28;19996;-53
2023/01/21 06:13:22;;;;;;;;;;;19.30;42.30;;;;;;5007801;28;19917;-52
2023/01/21 06:15:48;;;;;;;;;;;19.40;41.70;;;;;;4997078;28;19917;-53
2023/01/21 06:18:13;;;;;;;;;;;19.30;41.60;;;;;;4997148;28;19960;-53
2023/01/21 06:20:39;;;;;;;;;;;19.40;41.80;;;;;;5007677;28;20298;-52
2023/01/21 06:23:05;;;;;;;;;;;19.50;41.60;;;;;;5008913;28;19916;-53
2023/01/21 06:25:30;;;;;;;;;;;19.50;41.40;;;;;;5010522;28;20301;-53
2023/01/21 06:27:56;;;;;;;;;;;19.70;41.20;;;;;;5000995;28;19917;-53
2023/01/21 06:30:22;;;;;;;;;;;19.70;41.00;;;;;;4994492;28;21491;-53
2023/01/21 06:32:47;;;;;;;;;;;19.80;41.00;;;;;;4994871;28;20107;-53
2023/01/21 06:35:12;;;;;;;;;;;19.80;41.00;;;;;;4993510;28;20455;-53
2023/01/21 06:37:38;;;;;;;;;;;19.80;40.80;;;;;;4994574;28;19918;-52
2023/01/21 06:40:04;;;;;;;;;;;19.70;40.90;;;;;;4999037;28;20003;-53
2023/01/21 06:42:29;;;;;;;;;;;19.70;41.00;;;;;;4999463;28;20413;-52
2023/01/21 06:44:55;;;;;;;;;;;19.80;40.90;;;;;;5002596;28;20389;-53
2023/01/21 06:47:20;;;;;;;;;;;19.70;41.10;;;;;;4993128;28;19992;-53
2023/01/21 06:49:45;;;;;;;;;;;19.70;40.90;;;;;;4993603;28;19928;-53
2023/01/21 06:52:11;;;;;;;;;;;19.70;40.90;;;;;;4993596;28;19954;-53
2023/01/21 06:54:36;;;;;;;;;;;19.60;41.00;;;;;;5005670;28;19927;-53
2023/01/21 06:57:02;;;;;;;;;;;19.50;41.30;;;;;;5001906;28;20068;-53
2023/01/21 06:59:27;;;;;;;;;;;19.40;41.50;;;;;;4999025;28;19918;-53
2023/01/21 07:01:53;;;;;;;;;;;19.30;41.70;;;;;;5002428;28;22157;-53
2023/01/21 07:04:19;;;;;;;;;;;19.30;41.70;;;;;;5004594;28;19999;-53
2023/01/21 07:06:44;;;;;;;;;;;19.30;41.80;;;;;;5001490;28;20471;-54
2023/01/21 07:09:10;;;;;;;;;;;19.30;41.80;;;;;;4999655;28;19921;-52
2023/01/21 07:11:35;;;;;;;;;;;19.30;41.80;;;;;;5008485;28;19920;-52
2023/01/21 07:14:01;;;;;;;;;;;19.40;41.60;;;;;;5007234;28;20408;-52
2023/01/21 07:16:26;;;;;;;;;;;19.50;41.30;;;;;;5007596;28;20370;-52
2023/01/21 07:18:51;;;;;;;;;;;19.50;41.30;;;;;;5009504;28;20421;-53
2023/01/21 07:21:17;;;;;;;;;;;19.60;41.20;;;;;;5039722;28;20424;-54
2023/01/21 07:23:43;;;;;;;;;;;19.70;40.90;;;;;;5017092;28;19980;-53
2023/01/21 07:26:09;;;;;;;;;;;19.70;41.00;;;;;;5006657;28;20284;-53
2023/01/21 07:28:34;;;;;;;;;;;19.70;41.10;;;;;;5016306;28;19977;-52
2023/01/21 07:31:00;;;;;;;;;;;19.50;41.30;;;;;;5010918;28;20365;-53
2023/01/21 07:33:25;;;;;;;;;;;19.50;41.40;;;;;;5011389;28;20378;-53
2023/01/21 07:35:51;;;;;;;;;;;19.50;41.50;;;;;;5008859;28;19964;-53
2023/01/21 07:38:16;;;;;;;;;;;19.40;41.50;;;;;;5017782;28;20333;-53
2023/01/21 07:40:42;;;;;;;;;;;19.40;41.50;;;;;;5019072;28;20378;-53
2023/01/21 07:43:07;;;;;;;;;;;19.50;41.40;;;;;;5005387;28;19918;-53
2023/01/21 07:45:33;;;;;;;;;;;19.50;41.20;;;;;;5002173;28;19944;-53
2023/01/21 07:47:58;;;;;;;;;;;19.60;41.20;;;;;;5005213;28;19914;-53
2023/01/21 07:50:24;;;;;;;;;;;19.70;41.10;;;;;;5000369;28;20094;-53
2023/01/21 07:52:51;;;;;;;;;;;19.60;41.00;;;;;;5000674;28;19917;-53
2023/01/21 07:55:16;;;;;;;;;;;19.60;41.30;;;;;;4999120;28;19972;-53
2023/01/21 07:57:42;;;;;;;;;;;19.70;41.20;;;;;;5001428;28;19922;-53
2023/01/21 08:00:07;;;;;;;;;;;19.70;41.10;;;;;;4999390;28;19917;-53
2023/01/21 08:02:33;;;;;;;;;;;19.60;41.20;;;;;;4999529;28;19940;-54
2023/01/21 08:04:58;;;;;;;;;;;19.50;41.50;;;;;;4996073;28;20285;-53
2023/01/21 08:07:24;;;;;;;;;;;19.50;41.50;;;;;;4994735;28;19917;-53
2023/01/21 08:09:49;;;;;;;;;;;19.50;41.60;;;;;;5004939;28;19933;-53
2023/01/21 08:12:15;;;;;;;;;;;19.50;41.70;;;;;;4994726;28;20654;-53
2023/01/21 08:14:40;;;;;;;;;;;19.50;41.50;;;;;;4995369;28;20061;-53
2023/01/21 08:17:06;;;;;;;;;;;19.50;41.50;;;;;;4995044;28;19917;-53
2023/01/21 08:19:31;;;;;;;;;;;19.50;41.60;;;;;;4998338;28;19921;-53
2023/01/21 08:21:57;;;;;;;;;;;19.50;41.60;;;;;;4995449;28;19921;-52
2023/01/21 08:24:22;;;;;;;;;;;19.40;41.70;;;;;;4996779;28;19926;-52
2023/01/21 08:26:48;;;;;;;;;;;19.40;41.80;;;;;;5000767;28;20389;-53
2023/01/21 08:29:13;;;;;;;;;;;19.40;41.80;;;;;;5001060;28;20384;-53
2023/01/21 08:31:39;;;;;;;;;;;19.30;41.70;;;;;;5012848;28;19921;-53
2023/01/21 08:34:04;;;;;;;;;;;19.40;41.80;;;;;;5007228;28;19953;-53
2023/01/21 08:36:29;;;;;;;;;;;19.30;41.80;;;;;;5007081;28;19963;-53
2023/01/21 08:38:57;;;;;;;;;;;19.40;41.60;;;;;;5014443;28;20266;-53
2023/01/21 08:41:23;;;;;;;;;;;19.40;41.60;;;;;;5013890;28;19956;-53
2023/01/21 08:43:48;;;;;;;;;;;19.50;41.40;;;;;;5013668;28;19914;-53
2023/01/21 08:46:14;;;;;;;;;;;19.60;41.20;;;;;;5001375;28;19925;-53
2023/01/21 08:48:39;;;;;;;;;;;19.60;41.30;;;;;;5013730;28;19917;-53
2023/01/21 08:51:05;;;;;;;;;;;19.60;41.30;;;;;;4999649;28;19916;-55
2023/01/21 08:53:31;;;;;;;;;;;19.50;41.30;;;;;;5010457;28;19910;-54
2023/01/21 08:55:57;;;;;;;;;;;19.40;41.50;;;;;;5013917;28;19975;-53
2023/01/21 08:58:22;;;;;;;;;;;19.30;41.60;;;;;;5008957;28;19918;-54
2023/01/21 09:00:50;;;;;;;;;;;19.30;41.70;;;;;;5010159;28;19910;-55
2023/01/21 09:03:16;;;;;;;;;;;19.30;41.60;;;;;;5012447;28;19914;-54
2023/01/21 09:05:42;;;;;;;;;;;19.30;41.60;;;;;;5011666;28;19918;-54
2023/01/21 09:08:07;;;;;;;;;;;19.40;41.60;;;;;;5009129;28;20297;-55
2023/01/21 09:13:18;;;;;;;;;;;19.40;41.60;;;;;;5005748;28;19928;-53
2023/01/21 09:15:44;;;;;;;;;;;19.50;41.40;;;;;;5003688;28;19921;-53
2023/01/21 09:18:09;;;;;;;;;;;19.50;41.80;;;;;;5012158;28;19917;-53
2023/01/21 09:20:35;;;;;;;;;;;19.80;41.20;;;;;;5012056;28;19984;-53
2023/01/21 09:23:00;;;;;;;;;;;20.30;40.40;;;;;;4995282;28;19937;-53
2023/01/21 09:25:26;;;;;;;;;;;20.70;39.50;;;;;;5010262;28;20392;-53
2023/01/21 09:27:51;;;;;;;;;;;21.00;38.90;;;;;;5010583;28;19909;-54
2023/01/21 09:30:17;;;;;;;;;;;21.10;38.60;;;;;;5005722;28;19922;-53
2023/01/21 09:32:42;;;;;;;;;;;21.20;38.40;;;;;;5007807;28;19914;-54
2023/01/21 09:35:08;;;;;;;;;;;21.30;38.20;;;;;;5012162;28;20015;-53
2023/01/21 09:37:33;;;;;;;;;;;21.50;38.10;;;;;;5012007;28;19909;-52
2023/01/21 09:39:59;;;;;;;;;;;21.60;37.80;;;;;;5008721;28;19979;-54
2023/01/21 09:42:25;;;;;;;;;;;21.60;37.70;;;;;;5008790;28;20392;-55
2023/01/21 09:44:51;;;;;;;;;;;21.60;37.70;;;;;;5007475;28;19928;-55
2023/01/21 09:47:16;;;;;;;;;;;21.50;37.80;;;;;;4994145;28;20385;-54
2023/01/21 09:49:52;;;;;;;;;;;21.50;37.90;;;;;;5012693;28;19914;-54
2023/01/21 09:52:25;;;;;;;;;;;21.50;38.00;;;;;;5011142;28;19914;-54
2023/01/21 09:54:51;;;;;;;;;;;21.60;38.00;;;;;;5013615;28;19914;-55
2023/01/21 09:57:37;;;;;;;;;;;21.50;38.00;;;;;;5044261;28;19932;-55
2023/01/21 10:00:21;;;;;;;;;;;21.50;38.20;;;;;;5027343;28;19933;-54
2023/01/21 10:03:05;;;;;;;;;;;21.40;38.50;;;;;;4999400;28;19913;-52
2023/01/21 10:05:33;;;;;;;;;;;21.20;38.80;;;;;;5008728;28;19965;-55
2023/01/21 10:08:14;;;;;;;;;;;21.10;39.00;;;;;;5010147;28;19920;-55
2023/01/21 10:10:45;;;;;;;;;;;21.10;39.10;;;;;;5010613;28;20600;-55
2023/01/21 10:13:17;;;;;;;;;;;21.10;39.30;;;;;;5036336;28;19920;-53
2023/01/21 10:15:45;;;;;;;;;;;21.10;39.20;;;;;;5000596;28;20389;-52
2023/01/21 10:18:15;;;;;;;;;;;21.00;39.30;;;;;;5004090;28;19917;-55
2023/01/21 10:20:49;;;;;;;;;;;20.90;39.70;;;;;;5008225;28;19922;-53
2023/01/21 10:23:41;;;;;;;;;;;20.70;39.90;;;;;;5034788;28;20242;-53
2023/01/21 10:26:08;;;;;;;;;;;20.50;40.90;;;;;;4997257;28;20016;-53
2023/01/21 10:28:33;;;;;;;;;;;20.50;40.40;;;;;;4998331;28;19921;-54
2023/01/21 10:31:01;;;;;;;;;;;20.70;40.40;;;;;;5030616;28;19913;-53
2023/01/21 10:33:27;;;;;;;;;;;20.80;40.10;;;;;;5019387;28;19913;-53
2023/01/21 10:36:12;;;;;;;;;;;21.10;39.60;;;;;;5021253;28;19960;-54
2023/01/21 10:38:43;;;;;;;;;;;21.30;39.50;;;;;;4992949;28;19914;-53
2023/01/21 10:41:27;;;;;;;;;;;21.40;39.20;;;;;;4995696;28;19917;-54
2023/01/21 10:44:02;;;;;;;;;;;21.50;39.00;;;;;;4994567;28;19925;-54
2023/01/21 10:46:36;;;;;;;;;;;21.50;38.90;;;;;;5003367;28;19924;-54
2023/01/21 10:49:08;;;;;;;;;;;21.40;39.10;;;;;;5008775;28;20032;-54
2023/01/21 10:51:36;;;;;;;;;;;21.30;39.50;;;;;;5030440;28;19921;-54
2023/01/21 10:54:07;;;;;;;;;;;21.00;39.80;;;;;;5011798;28;20015;-53
2023/01/21 10:56:35;;;;;;;;;;;20.80;40.30;;;;;;5041580;28;19957;-53
2023/01/21 10:59:14;;;;;;;;;;;20.70;40.40;;;;;;5024004;28;19913;-53
2023/01/21 11:01:44;;;;;;;;;;;20.70;40.40;;;;;;5009106;28;19961;-53
2023/01/21 11:04:19;;;;;;;;;;;20.80;40.50;;;;;;5044230;28;20103;-53
2023/01/21 11:06:45;;;;;;;;;;;20.80;40.30;;;;;;5031786;28;19914;-53
2023/01/21 11:09:11;;;;;;;;;;;20.80;40.50;;;;;;4996347;28;19918;-53
2023/01/21 11:11:39;;;;;;;;;;;20.80;40.50;;;;;;5037859;28;19910;-53
2023/01/21 11:14:04;;;;;;;;;;;20.90;40.50;;;;;;5010519;28;19909;-53
2023/01/21 11:16:45;;;;;;;;;;;20.90;40.60;;;;;;4992509;28;20337;-53
2023/01/21 11:19:12;;;;;;;;;;;20.80;40.70;;;;;;5000646;28;19918;-53
2023/01/21 11:21:38;;;;;;;;;;;20.80;40.80;;;;;;5011801;28;20559;-54
2023/01/21 11:24:17;;;;;;;;;;;20.80;40.70;;;;;;5011283;28;19922;-53
2023/01/21 11:26:47;;;;;;;;;;;21.00;40.60;;;;;;5045160;28;19918;-53
2023/01/21 11:29:14;;;;;;;;;;;21.10;40.10;;;;;;5001651;28;19925;-54
2023/01/21 11:31:42;;;;;;;;;;;21.30;39.90;;;;;;5011694;28;20335;-54
2023/01/21 11:34:12;;;;;;;;;;;21.40;39.80;;;;;;4996483;28;19921;-55
2023/01/21 11:36:37;;;;;;;;;;;21.50;39.70;;;;;;5001067;28;19914;-55
2023/01/21 11:39:03;;;;;;;;;;;21.50;39.60;;;;;;5044985;28;19913;-54
2023/01/21 11:41:29;;;;;;;;;;;21.50;39.60;;;;;;4997793;28;19917;-52
2023/01/21 11:43:55;;;;;;;;;;;21.40;39.50;;;;;;5012089;28;20285;-53
2023/01/21 11:46:22;;;;;;;;;;;21.40;39.70;;;;;;5028597;28;19924;-54
2023/01/21 11:48:47;;;;;;;;;;;21.20;39.90;;;;;;5027506;28;19910;-54
2023/01/21 11:51:13;;;;;;;;;;;21.20;40.00;;;;;;5008768;28;20296;-53
2023/01/21 11:53:40;;;;;;;;;;;21.10;40.20;;;;;;5015879;28;19955;-54
2023/01/21 11:56:05;;;;;;;;;;;21.10;40.90;;;;;;5046738;28;19909;-54
2023/01/21 11:58:31;;;;;;;;;;;21.00;40.30;;;;;;4997602;28;20443;-54
2023/01/21 12:00:58;;;;;;;;;;;21.10;40.30;;;;;;5027344;28;19990;-54
2023/01/21 12:03:24;;;;;;;;;;;21.10;40.20;;;;;;5027362;28;19979;-53
2023/01/21 12:05:50;;;;;;;;;;;21.20;40.10;;;;;;4996427;28;19936;-53
2023/01/21 12:08:20;;;;;;;;;;;21.30;40.00;;;;;;5015486;28;20008;-54
2023/01/21 12:10:46;;;;;;;;;;;21.30;39.80;;;;;;5015029;28;19992;-54
2023/01/21 12:13:13;;;;;;;;;;;21.40;39.70;;;;;;5046886;28;20011;-54
2023/01/21 12:15:57;;;;;;;;;;;21.50;39.60;;;;;;5030995;28;20347;-54
2023/01/21 12:18:25;;;;;;;;;;;21.50;39.60;;;;;;5012360;28;19928;-53
2023/01/21 12:20:54;;;;;;;;;;;21.50;39.60;;;;;;5003483;28;20349;-53
2023/01/21 12:23:26;;;;;;;;;;;21.30;39.60;;;;;;5002231;28;20504;-53
2023/01/21 12:26:00;;;;;;;;;;;21.10;40.00;;;;;;5009272;28;19918;-53
2023/01/21 12:28:28;;;;;;;;;;;21.00;40.20;;;;;;4994248;28;20513;-53
2023/01/21 12:31:22;;;;;;;;;;;21.00;40.40;;;;;;4997663;28;19922;-53
2023/01/21 12:33:52;;;;;;;;;;;21.00;40.60;;;;;;4994233;28;19918;-53
2023/01/21 12:36:19;;;;;;;;;;;21.10;40.30;;;;;;5004110;28;20011;-53
2023/01/21 12:38:47;;;;;;;;;;;21.10;40.30;;;;;;5004780;28;19935;-54
2023/01/21 12:41:17;;;;;;;;;;;21.10;40.60;;;;;;5000219;28;19922;-54
2023/01/21 12:43:45;;;;;;;;;;;21.10;40.80;;;;;;5008674;28;19914;-54
2023/01/21 12:46:14;;;;;;;;;;;21.10;40.50;;;;;;4992402;28;19921;-54
2023/01/21 12:48:41;;;;;;;;;;;21.10;40.30;;;;;;4991672;28;19993;-54
2023/01/21 12:51:10;;;;;;;;;;;21.10;40.30;;;;;;5034605;28;20542;-54
2023/01/21 12:53:51;;;;;;;;;;;21.00;40.00;;;;;;5013857;28;20391;-53
2023/01/21 12:56:21;;;;;;;;;;;20.90;39.80;;;;;;5029678;28;20383;-53
2023/01/21 12:58:56;;;;;;;;;;;20.80;40.00;;;;;;5013739;28;19920;-53
2023/01/21 13:01:39;;;;;;;;;;;20.70;40.40;;;;;;5007020;28;20366;-53
2023/01/21 13:04:13;;;;;;;;;;;20.50;40.50;;;;;;5010736;28;20024;-54
2023/01/21 13:06:41;;;;;;;;;;;20.50;40.30;;;;;;5044437;28;19918;-54
2023/01/21 13:09:09;;;;;;;;;;;20.40;40.40;;;;;;5027908;28;19913;-54
2023/01/21 13:11:36;;;;;;;;;;;20.40;40.60;;;;;;5031787;28;19947;-54
2023/01/21 13:14:07;;;;;;;;;;;20.30;40.90;;;;;;5011684;28;19921;-53
2023/01/21 13:16:47;;;;;;;;;;;20.30;40.90;;;;;;4994572;28;20016;-53
2023/01/21 13:19:13;;;;;;;;;;;20.40;41.00;;;;;;4997920;28;20273;-53
2023/01/21 13:21:40;;;;;;;;;;;20.40;40.70;;;;;;5006759;28;19924;-54
2023/01/21 13:24:13;;;;;;;;;;;20.40;40.60;;;;;;5036783;28;19929;-52
2023/01/21 13:26:45;;;;;;;;;;;20.60;40.50;;;;;;5044039;28;19924;-53
2023/01/21 13:29:15;;;;;;;;;;;20.70;40.50;;;;;;5009121;28;19914;-54
2023/01/21 13:31:59;;;;;;;;;;;20.70;40.40;;;;;;5005840;28;20008;-52
2023/01/21 13:34:27;;;;;;;;;;;20.70;40.30;;;;;;5008710;28;19959;-53
2023/01/21 13:36:55;;;;;;;;;;;21.20;40.00;;;;;;5013164;28;19952;-52
2023/01/21 13:39:36;;;;;;;;;;;21.50;39.20;;;;;;5057119;28;19917;-54
2023/01/21 13:42:01;;;;;;;;;;;21.60;39.10;;;;;;5032262;28;19913;-54
2023/01/21 13:44:33;;;;;;;;;;;21.50;39.30;;;;;;5007884;28;19961;-55
2023/01/21 13:47:07;;;;;;;;;;;21.40;39.40;;;;;;5002705;28;19970;-54
2023/01/21 13:49:39;;;;;;;;;;;21.30;39.50;;;;;;5021220;28;19918;-54
2023/01/21 13:52:10;;;;;;;;;;;21.30;39.60;;;;;;5028024;28;19921;-54
2023/01/21 13:54:45;;;;;;;;;;;21.50;39.30;;;;;;5005935;28;19921;-54
2023/01/21 13:57:13;;;;;;;;;;;21.70;38.90;;;;;;5001182;28;19918;-54
2023/01/21 13:59:43;;;;;;;;;;;21.60;39.00;;;;;;4995723;28;19920;-54
2023/01/21 14:02:20;;;;;;;;;;;21.60;39.00;;;;;;4993943;28;19914;-55
2023/01/21 14:04:51;;;;;;;;;;;21.70;38.90;;;;;;5000553;28;19917;-55
2023/01/21 14:07:36;;;;;;;;;;;21.70;38.80;;;;;;4994507;28;20298;-54
2023/01/21 14:10:03;;;;;;;;;;;21.80;38.70;;;;;;5025176;28;19914;-54
2023/01/21 14:12:43;;;;;;;;;;;21.80;38.60;;;;;;5029106;28;19917;-55
2023/01/21 14:15:27;;;;;;;;;;;21.90;38.50;;;;;;5013288;28;19909;-54
2023/01/21 14:17:52;;;;;;;;;;;21.90;38.30;;;;;;5010537;28;20007;-54
2023/01/21 14:20:36;;;;;;;;;;;22.00;38.30;;;;;;5006225;28;19964;-55
2023/01/21 14:23:05;;;;;;;;;;;21.90;38.30;;;;;;5012553;28;20071;-52
2023/01/21 14:25:40;;;;;;;;;;;21.70;38.70;;;;;;5007538;28;20004;-53
2023/01/21 14:28:19;;;;;;;;;;;21.50;39.20;;;;;;4993218;28;20380;-53
2023/01/21 14:30:50;;;;;;;;;;;21.40;39.30;;;;;;4992907;28;19914;-53